createdAt,value
2018-07-11T00:01:58.106Z,7.13
2018-07-11T00:04:38.882Z,7.77
2018-07-11T00:07:14.737Z,7.87
2018-07-11T00:09:43.142Z,7.57
2018-07-11T00:12:11.547Z,8.33
2018-07-11T00:14:39.917Z,7.67
2018-07-11T00:17:13.390Z,6.53
2018-07-11T00:19:41.757Z,5.80
2018-07-11T00:22:11.209Z,6.90
2018-07-11T00:24:39.581Z,7.60
2018-07-11T00:27:07.990Z,7.47
2018-07-11T00:29:36.432Z,6.10
2018-07-11T00:32:04.811Z,6.53
2018-07-11T00:34:33.180Z,6.50
2018-07-11T00:37:01.569Z,7.53
2018-07-11T00:39:29.904Z,6.70
2018-07-11T00:41:58.275Z,6.90
2018-07-11T00:44:26.654Z,7.23
2018-07-11T00:46:55.189Z,8.03
2018-07-11T00:49:23.546Z,6.30
2018-07-11T00:51:51.913Z,6.93
2018-07-11T00:54:20.277Z,6.20
2018-07-11T00:56:48.689Z,5.83
2018-07-11T00:59:22.696Z,7.63
2018-07-11T01:01:51.485Z,6.97
2018-07-11T01:04:19.934Z,6.47
2018-07-11T01:06:48.350Z,6.97
2018-07-11T01:09:16.818Z,6.00
2018-07-11T01:11:46.028Z,6.40
2018-07-11T01:14:15.990Z,6.37
2018-07-11T01:16:44.403Z,6.60
2018-07-11T01:19:12.768Z,7.23
2018-07-11T01:21:41.147Z,6.10
2018-07-11T01:24:09.494Z,6.70
2018-07-11T01:26:38.903Z,6.73
2018-07-11T01:29:07.597Z,6.77
2018-07-11T01:31:35.937Z,7.10
2018-07-11T01:34:04.368Z,7.03
2018-07-11T01:36:33.115Z,6.90
2018-07-11T01:39:02.007Z,6.10
2018-07-11T01:41:30.357Z,6.43
2018-07-11T01:43:58.712Z,7.40
2018-07-11T01:46:36.874Z,6.93
2018-07-11T01:49:05.374Z,6.70
2018-07-11T01:51:44.888Z,7.47
2018-07-11T01:54:13.277Z,7.00
2018-07-11T01:56:41.724Z,7.00
2018-07-11T01:59:10.129Z,6.63
2018-07-11T02:01:39.276Z,7.00
2018-07-11T02:04:07.636Z,7.23
2018-07-11T02:06:36.105Z,7.60
2018-07-11T02:09:04.675Z,7.00
2018-07-11T02:11:33.119Z,7.50
2018-07-11T02:14:01.597Z,7.10
2018-07-11T02:16:30.016Z,7.77
2018-07-11T02:18:58.433Z,7.70
2018-07-11T02:21:28.177Z,7.80
2018-07-11T02:23:57.742Z,6.33
2018-07-11T02:26:26.152Z,7.20
2018-07-11T02:28:54.536Z,7.50
2018-07-11T02:31:22.937Z,7.93
2018-07-11T02:33:51.412Z,7.40
2018-07-11T02:36:19.829Z,8.20
2018-07-11T02:38:48.161Z,7.27
2018-07-11T02:41:16.497Z,7.23
2018-07-11T02:43:44.853Z,7.00
2018-07-11T02:46:13.225Z,7.10
2018-07-11T02:48:41.669Z,6.87
2018-07-11T02:51:10.023Z,7.13
2018-07-11T02:53:38.479Z,7.07
2018-07-11T02:56:06.874Z,7.60
2018-07-11T02:58:35.226Z,7.00
2018-07-11T03:01:03.558Z,7.67
2018-07-11T03:03:32.060Z,7.80
2018-07-11T03:06:00.432Z,7.80
2018-07-11T03:08:35.711Z,7.70
2018-07-11T03:11:04.868Z,6.87
2018-07-11T03:13:33.308Z,7.20
2018-07-11T03:16:02.046Z,8.37
2018-07-11T03:18:31.673Z,6.63
2018-07-11T03:21:00.117Z,7.30
2018-07-11T03:23:28.533Z,7.90
2018-07-11T03:25:56.917Z,7.93
2018-07-11T03:28:25.261Z,6.97
2018-07-11T03:30:53.639Z,7.20
2018-07-11T03:33:22.123Z,7.83
2018-07-11T03:35:50.545Z,8.80
2018-07-11T03:38:18.945Z,8.63
2018-07-11T03:40:47.330Z,7.40
2018-07-11T03:43:15.687Z,7.17
2018-07-11T03:45:44.174Z,8.27
2018-07-11T03:48:12.505Z,8.97
2018-07-11T03:50:40.958Z,8.07
2018-07-11T03:53:09.318Z,8.50
2018-07-11T03:55:37.679Z,7.33
2018-07-11T03:58:06.105Z,9.00
2018-07-11T04:00:34.476Z,8.30
2018-07-11T04:03:02.821Z,9.43
2018-07-11T04:05:31.269Z,8.60
2018-07-11T04:08:00.809Z,10.00
2018-07-11T04:10:29.118Z,10.20
2018-07-11T04:12:59.634Z,8.83
2018-07-11T04:15:28.094Z,9.10
2018-07-11T04:17:57.163Z,10.27
2018-07-11T04:20:25.754Z,10.73
2018-07-11T04:22:54.169Z,12.27
2018-07-11T04:25:22.665Z,12.57
2018-07-11T04:27:51.093Z,11.77
2018-07-11T04:30:19.524Z,11.60
2018-07-11T04:32:47.987Z,12.70
2018-07-11T04:35:16.364Z,10.97
2018-07-11T04:37:44.785Z,13.13
2018-07-11T04:40:13.193Z,12.20
2018-07-11T04:42:41.598Z,11.77
2018-07-11T04:45:09.985Z,12.17
2018-07-11T04:47:38.430Z,12.53
2018-07-11T04:50:08.818Z,13.47
2018-07-11T04:52:37.218Z,14.00
2018-07-11T04:55:07.486Z,14.60
2018-07-11T04:57:35.876Z,14.40
2018-07-11T05:00:04.347Z,17.00
2018-07-11T05:02:32.709Z,18.33
2018-07-11T05:05:01.050Z,18.80
2018-07-11T05:07:29.694Z,17.80
2018-07-11T05:09:58.043Z,19.83
2018-07-11T05:12:26.493Z,20.43
2018-07-11T05:14:54.834Z,20.03
2018-07-11T05:17:23.180Z,20.97
2018-07-11T05:19:51.509Z,23.03
2018-07-11T05:22:20.501Z,23.50
2018-07-11T05:24:48.871Z,24.10
2018-07-11T05:27:17.190Z,24.03
2018-07-11T05:29:47.030Z,25.37
2018-07-11T05:32:15.603Z,25.90
2018-07-11T05:34:43.953Z,27.70
2018-07-11T05:37:12.300Z,25.70
2018-07-11T05:39:40.664Z,28.20
2018-07-11T05:42:08.998Z,26.07
2018-07-11T05:44:37.404Z,25.73
2018-07-11T05:47:06.777Z,27.70
2018-07-11T05:49:35.693Z,27.50
2018-07-11T05:52:04.431Z,27.67
2018-07-11T05:54:33.910Z,30.00
2018-07-11T05:57:02.691Z,28.03
2018-07-11T05:59:31.076Z,30.40
2018-07-11T06:01:59.783Z,28.67
2018-07-11T06:04:28.151Z,30.10
2018-07-11T06:06:58.375Z,27.13
2018-07-11T06:09:26.774Z,26.23
2018-07-11T06:11:55.193Z,26.33
2018-07-11T06:14:24.581Z,27.40
2018-07-11T06:16:53.200Z,27.53
2018-07-11T06:19:23.241Z,24.63
2018-07-11T06:21:51.824Z,27.50
2018-07-11T06:24:20.913Z,25.87
2018-07-11T06:26:49.684Z,22.80
2018-07-11T06:29:18.072Z,24.50
2018-07-11T06:31:46.579Z,23.70
2018-07-11T06:34:15.026Z,21.30
2018-07-11T06:36:43.486Z,24.43
2018-07-11T06:39:11.920Z,23.67
2018-07-11T06:41:40.462Z,23.13
2018-07-11T06:44:08.850Z,23.60
2018-07-11T06:46:37.441Z,22.97
2018-07-11T06:49:05.827Z,25.43
2018-07-11T06:51:34.261Z,24.70
2018-07-11T06:54:02.602Z,22.90
2018-07-11T06:56:31.037Z,25.57
2018-07-11T06:58:59.447Z,25.50
2018-07-11T07:01:27.889Z,25.70
2018-07-11T07:03:56.251Z,27.40
2018-07-11T07:06:24.616Z,22.93
2018-07-11T07:08:53.062Z,22.70
2018-07-11T07:11:21.388Z,23.37
2018-07-11T07:13:49.828Z,25.40
2018-07-11T07:16:18.465Z,27.37
2018-07-11T07:18:46.766Z,24.50
2018-07-11T07:21:15.141Z,24.23
2018-07-11T07:23:44.081Z,25.17
2018-07-11T07:26:12.426Z,24.80
2018-07-11T07:28:41.781Z,24.63
2018-07-11T07:31:10.181Z,22.97
2018-07-11T07:33:38.671Z,25.20
2018-07-11T07:36:07.194Z,21.93
2018-07-11T07:38:39.403Z,23.93
2018-07-11T07:41:08.161Z,23.13
2018-07-11T07:43:36.641Z,22.57
2018-07-11T07:46:05.199Z,21.40
2018-07-11T07:48:33.540Z,22.00
2018-07-11T07:51:01.908Z,24.00
2018-07-11T07:53:30.272Z,23.07
2018-07-11T07:55:58.797Z,22.17
2018-07-11T07:58:27.129Z,21.90
2018-07-11T08:00:55.493Z,20.83
2018-07-11T08:03:23.885Z,21.87
2018-07-11T08:05:52.177Z,19.60
2018-07-11T08:08:20.503Z,21.20
2018-07-11T08:10:49.169Z,20.37
2018-07-11T08:13:17.509Z,19.20
2018-07-11T08:15:45.890Z,20.03
2018-07-11T08:18:14.287Z,18.97
2018-07-11T08:20:42.724Z,18.13
2018-07-11T08:23:24.549Z,17.10
2018-07-11T08:26:05.319Z,15.20
2018-07-11T08:30:46.801Z,18.00
2018-07-11T08:33:28.248Z,17.77
2018-07-11T08:36:07.705Z,18.17
2018-07-11T08:40:47.420Z,17.03
2018-07-11T08:43:56.830Z,17.10
2018-07-11T08:46:39.530Z,16.10
2018-07-11T08:49:19.065Z,16.20
2018-07-11T08:52:24.964Z,16.70
2018-07-11T08:55:02.672Z,16.80
2018-07-11T08:57:44.472Z,15.80
2018-07-11T09:04:30.647Z,17.00
2018-07-11T09:09:15.777Z,14.40
2018-07-11T09:12:05.067Z,14.37
2018-07-11T09:15:39.841Z,15.00
2018-07-11T09:18:19.355Z,15.03
2018-07-11T09:21:10.728Z,14.97
2018-07-11T09:23:50.195Z,11.07
2018-07-11T09:26:18.573Z,11.17
2018-07-11T09:28:47.002Z,10.50
2018-07-11T09:31:15.509Z,10.83
2018-07-11T09:33:43.881Z,9.13
2018-07-11T09:36:12.260Z,8.60
2018-07-11T09:38:40.618Z,9.07
2018-07-11T09:41:09.113Z,9.20
2018-07-11T09:43:37.793Z,10.43
2018-07-11T09:46:06.238Z,8.43
2018-07-11T09:48:34.649Z,7.27
2018-07-11T09:51:02.973Z,7.73
2018-07-11T09:53:31.385Z,7.60
2018-07-11T09:55:59.827Z,7.87
2018-07-11T09:58:28.209Z,8.30
2018-07-11T10:01:02.397Z,7.50
2018-07-11T10:03:30.757Z,8.80
2018-07-11T10:05:59.144Z,7.50
2018-07-11T10:08:27.559Z,7.80
2018-07-11T10:10:55.949Z,6.50
2018-07-11T10:13:24.382Z,7.10
2018-07-11T10:15:52.726Z,6.13
2018-07-11T10:18:21.381Z,7.30
2018-07-11T10:20:50.982Z,7.63
2018-07-11T10:23:19.478Z,6.97
2018-07-11T10:25:47.848Z,7.90
2018-07-11T10:28:19.919Z,7.50
2018-07-11T10:30:48.702Z,7.50
2018-07-11T10:33:17.061Z,5.80
2018-07-11T10:35:45.377Z,6.27
2018-07-11T10:38:13.754Z,6.03
2018-07-11T10:40:42.172Z,5.10
2018-07-11T10:43:10.664Z,5.53
2018-07-11T10:45:39.013Z,5.47
2018-07-11T10:48:07.486Z,6.07
2018-07-11T10:50:35.832Z,5.93
2018-07-11T10:53:04.300Z,6.43
2018-07-11T10:55:32.938Z,6.37
2018-07-11T10:58:01.416Z,6.30
2018-07-11T11:00:36.659Z,6.77
2018-07-11T11:02:59.159Z,7.20
2018-07-11T11:05:30.615Z,7.17
2018-07-11T11:08:00.451Z,7.00
2018-07-11T11:10:28.719Z,6.27
2018-07-11T11:12:57.021Z,5.20
2018-07-11T11:15:25.384Z,6.23
2018-07-11T11:17:53.711Z,5.40
2018-07-11T11:20:22.394Z,5.70
2018-07-11T11:22:50.709Z,5.30
2018-07-11T11:25:19.023Z,6.97
2018-07-11T11:27:47.328Z,5.27
2018-07-11T11:30:15.629Z,4.50
2018-07-11T11:32:43.967Z,4.30
2018-07-11T11:35:12.337Z,5.43
2018-07-11T11:37:40.696Z,4.47
2018-07-11T11:40:09.017Z,3.00
2018-07-11T11:42:37.554Z,3.47
2018-07-11T11:45:05.829Z,2.67
2018-07-11T11:47:34.206Z,3.53
2018-07-11T11:50:02.645Z,3.40
2018-07-11T11:52:31.005Z,2.70
2018-07-11T11:54:59.329Z,3.40
2018-07-11T11:57:27.737Z,2.87
2018-07-11T11:59:56.111Z,2.90
2018-07-11T12:02:25.236Z,3.50
2018-07-11T12:04:55.047Z,4.00
2018-07-11T12:07:24.045Z,3.50
2018-07-11T12:09:52.431Z,2.90
2018-07-11T12:12:20.756Z,2.20
2018-07-11T12:14:49.100Z,2.47
2018-07-11T12:17:17.440Z,2.00
2018-07-11T12:19:46.531Z,1.90
2018-07-11T12:22:24.285Z,2.00
2018-07-11T12:24:52.926Z,1.93
2018-07-11T12:27:21.375Z,1.70
2018-07-11T12:29:50.938Z,1.40
2018-07-11T12:32:19.388Z,3.00
2018-07-11T12:34:47.809Z,1.90
2018-07-11T12:37:16.460Z,1.63
2018-07-11T12:39:45.070Z,1.53
2018-07-11T12:42:13.438Z,1.37
2018-07-11T12:44:41.784Z,1.87
2018-07-11T12:47:15.414Z,1.50
2018-07-11T12:49:43.845Z,1.73
2018-07-11T12:52:12.280Z,1.20
2018-07-11T12:54:40.742Z,1.57
2018-07-11T12:57:09.613Z,1.43
2018-07-11T12:59:38.159Z,1.57
2018-07-11T13:02:06.500Z,2.67
2018-07-11T13:04:34.853Z,2.00
2018-07-11T13:07:03.417Z,1.53
2018-07-11T13:09:31.969Z,1.77
2018-07-11T13:12:00.465Z,1.30
2018-07-11T13:14:28.864Z,2.10
2018-07-11T13:16:57.273Z,1.63
2018-07-11T13:19:25.725Z,2.00
2018-07-11T13:21:54.268Z,2.00
2018-07-11T13:24:22.836Z,1.97
2018-07-11T13:26:51.232Z,2.67
2018-07-11T13:29:19.538Z,2.00
2018-07-11T13:31:48.055Z,2.07
2018-07-11T13:34:16.469Z,2.40
2018-07-11T13:36:44.791Z,1.67
2018-07-11T13:39:16.597Z,2.30
2018-07-11T13:41:45.481Z,2.37
2018-07-11T13:44:14.265Z,2.40
2018-07-11T13:46:42.669Z,1.90
2018-07-11T13:49:11.792Z,2.17
2018-07-11T13:51:43.788Z,2.53
2018-07-11T13:54:17.140Z,2.67
2018-07-11T13:56:45.937Z,2.20
2018-07-11T13:59:14.296Z,2.20
2018-07-11T14:01:43.885Z,2.07
2018-07-11T14:04:12.343Z,2.30
2018-07-11T14:06:40.769Z,2.60
2018-07-11T14:09:09.108Z,2.67
2018-07-11T14:11:37.644Z,1.80
2018-07-11T14:14:06.158Z,2.60
2018-07-11T14:16:34.705Z,2.20
2018-07-11T14:19:03.389Z,2.20
2018-07-11T14:21:31.893Z,2.50
2018-07-11T14:24:00.331Z,2.63
2018-07-11T14:26:29.103Z,2.47
2018-07-11T14:28:57.786Z,2.30
2018-07-11T14:31:31.581Z,2.77
2018-07-11T14:34:01.927Z,2.57
2018-07-11T14:36:30.955Z,2.43
2018-07-11T14:38:59.725Z,2.77
2018-07-11T14:41:28.117Z,2.67
2018-07-11T14:43:57.213Z,2.83
2018-07-11T14:46:26.743Z,3.23
2018-07-11T14:48:55.201Z,2.90
2018-07-11T14:51:23.726Z,3.23
2018-07-11T14:53:52.599Z,2.37
2018-07-11T14:56:21.258Z,3.10
2018-07-11T14:58:51.390Z,3.30
2018-07-11T15:01:19.754Z,3.37
2018-07-11T15:03:48.318Z,2.77
2018-07-11T15:06:16.787Z,3.43
2018-07-11T15:08:46.211Z,5.23
2018-07-11T15:11:14.622Z,3.17
2018-07-11T15:13:43.085Z,4.43
2018-07-11T15:16:11.585Z,4.13
2018-07-11T15:18:40.388Z,6.13
2018-07-11T15:21:09.119Z,5.03
2018-07-11T15:23:37.682Z,6.37
2018-07-11T15:26:06.159Z,5.27
2018-07-11T15:28:34.620Z,6.00
2018-07-11T15:31:03.135Z,7.53
2018-07-11T15:33:32.183Z,7.00
2018-07-11T15:36:01.200Z,7.90
2018-07-11T15:38:29.772Z,8.47
2018-07-11T15:40:59.113Z,9.13
2018-07-11T15:43:28.376Z,8.90
2018-07-11T15:45:57.250Z,8.40
2018-07-11T15:48:27.449Z,8.60
2018-07-11T15:50:56.243Z,8.60
2018-07-11T15:53:25.075Z,7.97
2018-07-11T15:55:54.118Z,7.50
2018-07-11T15:58:24.759Z,7.33
2018-07-11T16:00:53.232Z,6.80
2018-07-11T16:03:22.125Z,6.60
2018-07-11T16:05:50.799Z,7.40
2018-07-11T16:08:20.328Z,7.40
2018-07-11T16:10:51.358Z,7.77
2018-07-11T16:13:19.701Z,7.33
2018-07-11T16:15:48.630Z,7.60
2018-07-11T16:18:17.094Z,7.80
2018-07-11T16:20:45.493Z,7.60
2018-07-11T16:23:14.244Z,6.50
2018-07-11T16:25:43.897Z,8.17
2018-07-11T16:28:12.986Z,6.80
2018-07-11T16:30:41.366Z,6.87
2018-07-11T16:33:09.958Z,6.70
2018-07-11T16:35:38.874Z,8.30
2018-07-11T16:38:08.470Z,7.10
2018-07-11T16:40:36.911Z,8.07
2018-07-11T16:43:07.121Z,7.93
2018-07-11T16:45:35.610Z,8.03
2018-07-11T16:48:04.255Z,7.27
2018-07-11T16:50:32.693Z,8.70
2018-07-11T16:53:01.082Z,8.00
2018-07-11T16:55:29.858Z,7.40
2018-07-11T16:57:58.261Z,6.97
2018-07-11T17:00:29.865Z,7.07
2018-07-11T17:03:04.285Z,7.97
2018-07-11T17:05:56.737Z,6.87
2018-07-11T17:08:30.804Z,7.40
2018-07-11T17:11:20.157Z,7.40
2018-07-11T17:13:53.357Z,8.27
2018-07-11T17:16:30.176Z,8.23
2018-07-11T17:19:22.781Z,9.30
2018-07-11T17:21:51.266Z,8.63
2018-07-11T17:24:21.242Z,9.53
2018-07-11T17:26:50.696Z,9.53
2018-07-11T17:29:20.757Z,9.60
2018-07-11T17:31:51.483Z,11.40
2018-07-11T17:34:21.608Z,10.17
2018-07-11T17:36:52.743Z,10.73
2018-07-11T17:39:21.145Z,10.50
2018-07-11T17:41:49.710Z,10.70
2018-07-11T17:44:20.277Z,11.73
2018-07-11T17:46:48.750Z,12.83
2018-07-11T17:49:27.429Z,13.63
2018-07-11T17:52:01.998Z,14.20
2018-07-11T17:54:41.981Z,15.80
2018-07-11T17:57:12.823Z,14.40
2018-07-11T17:59:48.069Z,16.57
2018-07-11T18:02:21.670Z,17.17
2018-07-11T18:05:02.829Z,18.30
2018-07-11T18:07:41.399Z,18.40
2018-07-11T18:10:09.810Z,15.50
2018-07-11T18:12:47.298Z,16.70
2018-07-11T18:15:26.642Z,14.53
2018-07-11T18:18:14.542Z,13.73
2018-07-11T18:21:08.768Z,12.30
2018-07-11T18:25:45.525Z,14.90
2018-07-11T18:28:26.686Z,14.27
2018-07-11T18:31:05.634Z,14.33
2018-07-11T18:33:44.877Z,16.43
2018-07-11T18:36:38.084Z,13.80
2018-07-11T18:39:15.255Z,15.30
2018-07-11T18:41:53.136Z,14.83
2018-07-11T18:44:28.220Z,15.43
2018-07-11T18:47:08.862Z,14.20
2018-07-11T18:52:05.975Z,13.37
2018-07-11T18:55:50.407Z,14.37
2018-07-11T18:58:32.302Z,14.00
2018-07-11T19:01:17.313Z,14.50
2018-07-11T19:03:56.759Z,14.30
2018-07-11T19:08:37.178Z,17.27
2018-07-11T19:11:17.165Z,15.50
2018-07-11T19:13:47.489Z,15.53
2018-07-11T19:16:21.381Z,15.10
2018-07-11T19:18:56.866Z,15.37
2018-07-11T19:21:32.761Z,15.70
2018-07-11T19:24:05.690Z,15.63
2018-07-11T19:26:45.348Z,16.77
2018-07-11T19:29:51.595Z,15.70
2018-07-11T19:34:40.273Z,14.60
2018-07-11T19:37:32.872Z,15.70
2018-07-11T19:40:13.529Z,15.03
2018-07-11T19:42:54.737Z,15.50
2018-07-11T19:45:34.939Z,13.90
2018-07-11T19:48:14.525Z,17.33
2018-07-11T19:50:51.220Z,16.10
2018-07-11T19:53:32.512Z,17.77
2018-07-11T19:56:39.631Z,18.10
2018-07-11T19:59:07.996Z,17.60
2018-07-11T20:01:36.335Z,17.73
2018-07-11T20:04:04.687Z,16.10
2018-07-11T20:06:33.057Z,14.50
2018-07-11T20:09:01.421Z,15.30
2018-07-11T20:11:31.694Z,14.53
2018-07-11T20:14:00.138Z,15.60
2018-07-11T20:16:28.480Z,14.93
2018-07-11T20:18:56.849Z,14.30
2018-07-11T20:21:25.289Z,15.33
2018-07-11T20:23:53.653Z,15.50
2018-07-11T20:26:22.041Z,15.10
2018-07-11T20:28:51.870Z,14.60
2018-07-11T20:31:21.026Z,15.17
2018-07-11T20:33:49.860Z,15.10
2018-07-11T20:36:18.226Z,15.53
2018-07-11T20:38:46.574Z,14.37
2018-07-11T20:41:15.638Z,15.47
2018-07-11T20:43:44.206Z,15.10
2018-07-11T20:46:12.611Z,15.60
2018-07-11T20:48:41.037Z,16.00
2018-07-11T20:51:09.344Z,15.40
2018-07-11T20:53:37.651Z,15.67
2018-07-11T20:56:06.161Z,16.20
2018-07-11T20:58:45.784Z,17.30
2018-07-11T21:01:25.252Z,17.90
2018-07-11T21:06:10.663Z,18.33
2018-07-11T21:08:51.991Z,16.83
2018-07-11T21:12:35.526Z,18.13
2018-07-11T21:15:14.305Z,19.27
2018-07-11T21:17:57.788Z,20.83
2018-07-11T21:20:26.150Z,21.80
2018-07-11T21:22:54.476Z,22.70
2018-07-11T21:25:22.847Z,23.10
2018-07-11T21:27:51.187Z,26.07
2018-07-11T21:30:19.521Z,26.60
2018-07-11T21:32:47.869Z,25.23
2018-07-11T21:35:16.294Z,26.13
2018-07-11T21:37:44.603Z,29.33
2018-07-11T21:40:13.291Z,28.77
2018-07-11T21:42:41.621Z,30.70
2018-07-11T21:45:09.943Z,28.13
2018-07-11T21:47:38.545Z,29.93
2018-07-11T21:50:06.906Z,29.73
2018-07-11T21:52:35.489Z,29.73
2018-07-11T21:55:03.959Z,29.00
2018-07-11T21:57:32.334Z,28.50
2018-07-11T22:00:00.682Z,27.43
2018-07-11T22:02:29.017Z,30.07
2018-07-11T22:04:57.349Z,28.73
2018-07-11T22:07:25.685Z,29.83
2018-07-11T22:09:53.997Z,28.50
2018-07-11T22:12:22.271Z,29.10
2018-07-11T22:14:50.581Z,28.77
2018-07-11T22:17:30.047Z,28.40
2018-07-11T22:19:57.282Z,30.40
2018-07-11T22:22:24.505Z,29.80
2018-07-11T22:24:51.732Z,30.77
2018-07-11T22:27:18.981Z,29.60
2018-07-11T22:29:46.233Z,31.90
2018-07-11T22:32:13.469Z,32.73
2018-07-11T22:34:40.719Z,33.20
2018-07-11T22:37:07.990Z,32.20
2018-07-11T22:39:35.213Z,32.33
2018-07-11T22:42:02.459Z,32.03
2018-07-11T22:44:29.682Z,30.97
2018-07-11T22:46:56.954Z,31.90
2018-07-11T22:49:24.217Z,31.70
2018-07-11T22:51:51.446Z,31.97
2018-07-11T22:54:18.690Z,30.60
2018-07-11T22:56:45.964Z,31.00
2018-07-11T22:59:13.229Z,32.23
2018-07-11T23:01:40.483Z,28.37
2018-07-11T23:04:07.719Z,28.17
2018-07-11T23:06:35.020Z,28.70
2018-07-11T23:09:02.293Z,30.90
2018-07-11T23:11:29.546Z,27.70
2018-07-11T23:13:56.769Z,29.30
2018-07-11T23:16:23.999Z,31.60
2018-07-11T23:18:51.281Z,31.30
2018-07-11T23:21:18.513Z,29.83
2018-07-11T23:23:45.761Z,29.90
2018-07-11T23:26:13.016Z,33.03
2018-07-11T23:28:40.257Z,31.90
2018-07-11T23:31:07.485Z,32.87
2018-07-11T23:33:34.701Z,34.70
2018-07-11T23:36:02.006Z,35.60
2018-07-11T23:38:29.249Z,35.53
2018-07-11T23:40:56.533Z,33.03
2018-07-11T23:43:23.810Z,35.23
2018-07-11T23:45:51.037Z,33.80
2018-07-11T23:48:18.257Z,35.17
2018-07-11T23:50:45.515Z,34.83
2018-07-11T23:53:12.773Z,33.30
2018-07-11T23:55:40.009Z,34.30
2018-07-11T23:58:07.233Z,33.27
